Time;durP1;ratioP1;P1;durP2;ratioP2;P2;SDS_P1;SDS_P2;PMS_P1;PMS_P2;Temp;Humidity;BMP_temperature;BMP_pressure;BME280_temperature;BME280_humidity;BME280_pressure;Samples;Min_cycle;Max_cycle;Signal;HPM_P1;HPM_P2
2022/01/17 00:00:00;;;;;;;;;;;5.60;99.90;;;;;;5044037;28;19925;-75
2022/01/17 00:02:28;;;;;;;;;;;5.60;99.90;;;;;;5034284;28;20020;-75
2022/01/17 00:04:54;;;;;;;;;;;5.70;99.90;;;;;;5033924;28;19928;-75
2022/01/17 00:07:19;;;;;;;;;;;5.50;99.90;;;;;;5033450;28;19921;-75
2022/01/17 00:09:45;;;;;;;;;;;5.60;99.90;;;;;;5050752;28;19975;-75
2022/01/17 00:12:10;;;;;;;;;;;5.60;99.90;;;;;;5034511;28;19968;-75
2022/01/17 00:14:40;;;;;;;;;;;5.60;99.90;;;;;;5033801;28;20345;-75
2022/01/17 00:17:32;;;;;;;;;;;5.60;99.90;;;;;;5050033;28;19921;-75
2022/01/17 00:19:56;;;;;;;;;;;5.50;99.90;;;;;;5049467;28;19932;-75
2022/01/17 00:22:22;;;;;;;;;;;5.50;99.90;;;;;;5050556;28;19927;-75
2022/01/17 00:24:48;;;;;;;;;;;5.50;99.90;;;;;;5034057;28;20440;-75
2022/01/17 00:27:14;;;;;;;;;;;5.40;99.90;;;;;;5032582;28;19921;-75
2022/01/17 00:29:40;;;;;;;;;;;5.40;99.90;;;;;;5032501;28;20002;-75
2022/01/17 00:32:05;;;;;;;;;;;5.30;99.90;;;;;;5033843;28;19921;-75
2022/01/17 00:34:31;;;;;;;;;;;5.30;99.90;;;;;;5033572;28;19935;-75
2022/01/17 00:36:57;;;;;;;;;;;5.30;99.90;;;;;;5033928;28;19960;-75
2022/01/17 00:39:22;;;;;;;;;;;5.20;99.90;;;;;;5035770;28;20401;-76
2022/01/17 00:41:47;;;;;;;;;;;5.20;99.90;;;;;;5037818;28;20313;-75
2022/01/17 00:44:15;;;;;;;;;;;5.10;99.90;;;;;;5037336;28;19928;-75
2022/01/17 00:46:41;;;;;;;;;;;5.10;99.90;;;;;;5038116;28;19975;-75
2022/01/17 00:49:07;;;;;;;;;;;5.10;99.90;;;;;;5037622;28;19921;-75
2022/01/17 00:51:32;;;;;;;;;;;5.00;99.90;;;;;;5054700;28;19925;-76
2022/01/17 00:53:58;;;;;;;;;;;5.00;99.90;;;;;;5050480;28;19946;-77
2022/01/17 00:56:23;;;;;;;;;;;5.00;99.90;;;;;;5034111;28;20015;-75
2022/01/17 00:58:49;;;;;;;;;;;4.90;99.90;;;;;;5033060;28;20024;-75
2022/01/17 01:01:15;;;;;;;;;;;4.90;99.90;;;;;;5053661;28;19925;-75
2022/01/17 01:03:40;;;;;;;;;;;4.90;99.90;;;;;;5037089;28;19920;-75
2022/01/17 01:06:06;;;;;;;;;;;5.00;99.90;;;;;;5054081;28;20117;-75
2022/01/17 01:08:32;;;;;;;;;;;4.90;99.90;;;;;;5053769;28;19928;-75
2022/01/17 01:10:57;;;;;;;;;;;5.00;99.90;;;;;;5034035;28;19924;-75
2022/01/17 01:13:24;;;;;;;;;;;5.00;99.90;;;;;;5025561;28;20399;-75
2022/01/17 01:28:55;;;;;;;;;;;5.10;99.90;;;;;;5049078;28;19931;-75
2022/01/17 01:31:31;;;;;;;;;;;5.10;99.90;;;;;;5053511;28;20015;-75
2022/01/17 01:34:03;;;;;;;;;;;5.10;99.90;;;;;;5054394;28;19974;-75
2022/01/17 01:36:29;;;;;;;;;;;5.10;99.90;;;;;;5052992;28;20449;-75
2022/01/17 01:38:54;;;;;;;;;;;5.10;99.90;;;;;;5053151;28;19929;-75
2022/01/17 01:41:20;;;;;;;;;;;5.00;99.90;;;;;;5036620;28;19960;-75
2022/01/17 01:43:46;;;;;;;;;;;5.00;99.90;;;;;;5052954;28;20379;-75
2022/01/17 01:46:17;;;;;;;;;;;4.90;99.90;;;;;;5052913;28;19921;-75
2022/01/17 01:48:42;;;;;;;;;;;4.90;99.90;;;;;;5036407;28;20403;-75
2022/01/17 01:51:09;;;;;;;;;;;4.70;99.90;;;;;;5052029;28;20004;-76
2022/01/17 01:53:35;;;;;;;;;;;4.60;99.90;;;;;;5035909;28;20059;-76
2022/01/17 01:56:01;;;;;;;;;;;4.50;99.90;;;;;;5036664;28;19990;-76
2022/01/17 01:58:26;;;;;;;;;;;4.40;99.90;;;;;;5032765;28;20445;-76
2022/01/17 02:00:52;;;;;;;;;;;4.40;99.90;;;;;;5016861;28;19928;-76
2022/01/17 02:03:18;;;;;;;;;;;4.30;99.90;;;;;;5021424;28;19920;-75
2022/01/17 02:05:44;;;;;;;;;;;4.20;99.90;;;;;;5032801;28;19921;-75
2022/01/17 02:08:10;;;;;;;;;;;4.20;99.90;;;;;;5025266;28;19927;-75
2022/01/17 02:10:35;;;;;;;;;;;4.20;99.90;;;;;;5036343;28;19947;-76
2022/01/17 02:13:01;;;;;;;;;;;4.20;99.90;;;;;;5035523;28;19920;-76
2022/01/17 02:15:27;;;;;;;;;;;4.20;99.90;;;;;;5032740;28;19928;-76
2022/01/17 02:17:56;;;;;;;;;;;4.20;99.90;;;;;;5046125;28;20007;-76
2022/01/17 02:20:24;;;;;;;;;;;4.20;99.90;;;;;;5052777;28;19921;-76
2022/01/17 02:22:50;;;;;;;;;;;4.30;99.90;;;;;;5035980;28;19921;-76
2022/01/17 02:25:16;;;;;;;;;;;4.30;99.90;;;;;;5052890;28;20000;-75
2022/01/17 02:27:42;;;;;;;;;;;4.40;99.90;;;;;;5032483;28;20008;-75
2022/01/17 02:30:08;;;;;;;;;;;4.40;99.90;;;;;;5016086;28;19928;-74
2022/01/17 02:32:34;;;;;;;;;;;4.40;99.90;;;;;;5050290;28;19925;-75
2022/01/17 02:35:13;;;;;;;;;;;4.40;99.90;;;;;;5052733;28;19926;-75
2022/01/17 02:37:39;;;;;;;;;;;4.40;99.90;;;;;;5052284;28;19928;-75
2022/01/17 02:40:05;;;;;;;;;;;4.30;99.90;;;;;;5052263;28;19929;-75
2022/01/17 02:42:31;;;;;;;;;;;4.30;99.90;;;;;;5053403;28;19963;-75
2022/01/17 02:45:05;;;;;;;;;;;4.30;99.90;;;;;;5052388;28;20286;-73
2022/01/17 02:47:30;;;;;;;;;;;4.30;99.90;;;;;;5032479;28;20019;-73
2022/01/17 02:49:56;;;;;;;;;;;4.30;99.90;;;;;;5015942;28;20009;-73
2022/01/17 02:52:23;;;;;;;;;;;4.20;99.90;;;;;;5032936;28;20440;-73
2022/01/17 02:54:48;;;;;;;;;;;4.20;99.90;;;;;;5051470;28;19950;-73
2022/01/17 02:57:14;;;;;;;;;;;4.10;99.90;;;;;;5051827;28;19929;-73
2022/01/17 02:59:39;;;;;;;;;;;4.10;99.90;;;;;;5048094;28;20375;-73
2022/01/17 03:02:05;;;;;;;;;;;4.10;99.90;;;;;;5037199;28;19921;-73
2022/01/17 03:04:32;;;;;;;;;;;4.10;99.90;;;;;;5051533;28;19921;-73
2022/01/17 03:06:58;;;;;;;;;;;4.00;99.90;;;;;;5051669;28;20297;-73
2022/01/17 03:09:24;;;;;;;;;;;4.00;99.90;;;;;;5034582;28;19936;-73
2022/01/17 03:11:50;;;;;;;;;;;4.00;99.90;;;;;;5035205;28;19921;-73
2022/01/17 03:14:16;;;;;;;;;;;3.90;99.90;;;;;;5034345;28;20314;-73
2022/01/17 03:16:46;;;;;;;;;;;4.00;99.90;;;;;;5034596;28;19974;-73
2022/01/17 03:19:12;;;;;;;;;;;4.00;99.90;;;;;;5034891;28;19924;-73
2022/01/17 03:21:37;;;;;;;;;;;3.90;99.90;;;;;;5035118;28;20363;-72
2022/01/17 03:24:03;;;;;;;;;;;3.90;99.90;;;;;;5051313;28;20379;-72
2022/01/17 03:26:30;;;;;;;;;;;3.80;99.90;;;;;;5050885;28;19924;-73
2022/01/17 03:29:02;;;;;;;;;;;3.80;99.90;;;;;;5051510;28;19935;-73
2022/01/17 03:31:28;;;;;;;;;;;3.80;99.90;;;;;;5051481;28;19925;-72
2022/01/17 03:33:53;;;;;;;;;;;3.70;99.90;;;;;;5051081;28;20418;-73
2022/01/17 03:36:20;;;;;;;;;;;3.80;99.90;;;;;;5015090;28;19922;-74
2022/01/17 03:38:45;;;;;;;;;;;3.70;99.90;;;;;;5025271;28;19931;-73
2022/01/17 03:41:14;;;;;;;;;;;3.60;99.90;;;;;;5030883;28;19921;-74
2022/01/17 03:43:41;;;;;;;;;;;3.50;99.90;;;;;;5017408;28;21888;-74
2022/01/17 03:46:06;;;;;;;;;;;3.40;99.90;;;;;;5034156;28;19927;-73
2022/01/17 03:48:33;;;;;;;;;;;3.40;99.90;;;;;;5034346;28;19971;-73
2022/01/17 03:50:59;;;;;;;;;;;3.40;99.90;;;;;;5051034;28;20310;-73
2022/01/17 03:53:25;;;;;;;;;;;3.40;99.90;;;;;;5034047;28;19925;-73
2022/01/17 03:55:51;;;;;;;;;;;3.50;99.90;;;;;;5033936;28;19978;-73
2022/01/17 03:58:17;;;;;;;;;;;3.60;99.90;;;;;;5033976;28;19929;-74
2022/01/17 04:00:44;;;;;;;;;;;3.60;99.90;;;;;;5034159;28;19971;-74
2022/01/17 04:03:10;;;;;;;;;;;3.60;99.90;;;;;;5051870;28;19975;-74
2022/01/17 04:05:35;;;;;;;;;;;3.70;99.90;;;;;;5050489;28;20014;-75
2022/01/17 04:08:01;;;;;;;;;;;3.80;99.90;;;;;;5051240;28;19928;-73
2022/01/17 04:10:27;;;;;;;;;;;3.90;99.90;;;;;;5034458;28;19927;-73
2022/01/17 04:12:55;;;;;;;;;;;4.00;99.90;;;;;;5033512;28;19954;-73
2022/01/17 04:15:21;;;;;;;;;;;4.10;99.90;;;;;;5033587;28;19921;-73
2022/01/17 04:17:46;;;;;;;;;;;4.20;99.90;;;;;;5050834;28;19943;-73
2022/01/17 04:20:16;;;;;;;;;;;4.20;99.90;;;;;;5034102;28;19931;-74
2022/01/17 04:22:51;;;;;;;;;;;4.30;99.90;;;;;;5030206;28;19921;-73
2022/01/17 04:25:17;;;;;;;;;;;4.40;99.90;;;;;;5024784;28;20012;-73
2022/01/17 04:27:42;;;;;;;;;;;4.30;99.90;;;;;;5034630;28;20015;-74
2022/01/17 04:30:08;;;;;;;;;;;4.40;99.90;;;;;;5050554;28;20299;-74
2022/01/17 04:32:34;;;;;;;;;;;4.30;99.90;;;;;;5033681;28;20310;-74
2022/01/17 04:34:59;;;;;;;;;;;4.30;99.90;;;;;;5033837;28;20030;-74
2022/01/17 04:37:25;;;;;;;;;;;4.20;99.90;;;;;;5050262;28;20401;-74
2022/01/17 04:39:51;;;;;;;;;;;4.10;99.90;;;;;;5050156;28;20333;-73
2022/01/17 04:42:23;;;;;;;;;;;4.10;99.90;;;;;;5051877;28;19928;-75
2022/01/17 04:45:07;;;;;;;;;;;4.20;99.90;;;;;;5030453;28;19925;-75
2022/01/17 04:47:33;;;;;;;;;;;4.00;99.90;;;;;;5014045;28;19921;-75
2022/01/17 04:49:59;;;;;;;;;;;4.00;99.90;;;;;;5050125;28;19967;-75
2022/01/17 04:52:25;;;;;;;;;;;4.00;99.90;;;;;;5033553;28;19929;-75
2022/01/17 04:54:59;;;;;;;;;;;4.00;99.90;;;;;;5033519;28;19943;-75
2022/01/17 04:57:24;;;;;;;;;;;4.00;99.90;;;;;;5033651;28;20373;-75
2022/01/17 04:59:50;;;;;;;;;;;4.00;99.90;;;;;;5033504;28;19979;-75
2022/01/17 05:02:16;;;;;;;;;;;4.10;99.90;;;;;;5033645;28;19920;-75
2022/01/17 05:04:45;;;;;;;;;;;4.20;99.90;;;;;;5050213;28;19927;-75
2022/01/17 05:07:14;;;;;;;;;;;4.20;99.90;;;;;;5050087;28;20019;-75
2022/01/17 05:09:41;;;;;;;;;;;4.20;99.90;;;;;;5033404;28;20342;-75
2022/01/17 05:12:07;;;;;;;;;;;4.30;99.90;;;;;;5033189;28;19920;-75
2022/01/17 05:14:32;;;;;;;;;;;4.40;99.90;;;;;;5032949;28;19921;-75
2022/01/17 05:17:05;;;;;;;;;;;4.40;99.90;;;;;;5049819;28;19920;-75
2022/01/17 05:19:49;;;;;;;;;;;4.50;99.90;;;;;;5049650;28;19925;-75
2022/01/17 05:22:15;;;;;;;;;;;4.60;99.90;;;;;;5050423;28;20302;-75
2022/01/17 05:24:41;;;;;;;;;;;4.60;99.90;;;;;;5047143;28;19936;-75
2022/01/17 05:27:06;;;;;;;;;;;4.60;99.90;;;;;;5017530;28;20011;-75
2022/01/17 05:29:32;;;;;;;;;;;4.60;99.90;;;;;;5052894;28;19921;-75
2022/01/17 05:31:57;;;;;;;;;;;4.70;99.90;;;;;;5036659;28;19927;-75
2022/01/17 05:34:23;;;;;;;;;;;4.70;99.90;;;;;;5036708;28;20463;-75
2022/01/17 05:36:48;;;;;;;;;;;4.70;99.90;;;;;;5036849;28;19921;-75
2022/01/17 05:39:14;;;;;;;;;;;4.70;99.90;;;;;;5053043;28;19928;-75
2022/01/17 05:41:39;;;;;;;;;;;4.60;99.90;;;;;;5053556;28;20379;-75
2022/01/17 05:44:05;;;;;;;;;;;4.70;99.90;;;;;;5052748;28;19921;-75
2022/01/17 05:46:30;;;;;;;;;;;4.70;99.90;;;;;;5052929;28;20339;-75
2022/01/17 05:48:56;;;;;;;;;;;4.70;99.90;;;;;;5033118;28;19921;-75
2022/01/17 05:51:21;;;;;;;;;;;4.80;99.90;;;;;;5039927;28;20302;-75
2022/01/17 05:53:47;;;;;;;;;;;4.80;99.90;;;;;;5052941;28;19960;-75
2022/01/17 05:56:12;;;;;;;;;;;4.80;99.90;;;;;;5036509;28;19921;-75
2022/01/17 05:58:38;;;;;;;;;;;4.70;99.90;;;;;;5036017;28;19928;-75
2022/01/17 06:01:03;;;;;;;;;;;4.70;99.90;;;;;;5036091;28;19928;-75
2022/01/17 06:03:29;;;;;;;;;;;4.70;99.90;;;;;;5052173;28;19987;-74
2022/01/17 06:05:54;;;;;;;;;;;4.70;99.90;;;;;;5053523;28;19920;-76
2022/01/17 06:08:20;;;;;;;;;;;4.80;99.90;;;;;;5035762;28;20028;-75
2022/01/17 06:10:45;;;;;;;;;;;4.80;99.90;;;;;;5035737;28;19921;-75
2022/01/17 06:13:11;;;;;;;;;;;4.80;99.90;;;;;;5036367;28;19966;-76
2022/01/17 06:15:36;;;;;;;;;;;4.80;99.90;;;;;;5053132;28;19928;-73
2022/01/17 06:18:02;;;;;;;;;;;4.80;99.90;;;;;;5048782;28;20358;-72
2022/01/17 06:20:28;;;;;;;;;;;4.80;99.90;;;;;;5052946;28;20011;-72
2022/01/17 06:22:53;;;;;;;;;;;4.80;99.90;;;;;;5035910;28;19963;-73
2022/01/17 06:25:19;;;;;;;;;;;4.80;99.90;;;;;;5052403;28;19921;-75
2022/01/17 06:27:44;;;;;;;;;;;4.90;99.90;;;;;;5023330;28;19925;-73
2022/01/17 06:30:11;;;;;;;;;;;4.90;99.90;;;;;;5034046;28;20295;-74
2022/01/17 06:32:37;;;;;;;;;;;5.00;99.90;;;;;;5035825;28;19921;-75
2022/01/17 06:35:05;;;;;;;;;;;5.00;99.90;;;;;;5035791;28;19921;-74
2022/01/17 06:37:31;;;;;;;;;;;5.00;99.90;;;;;;5034762;28;19966;-75
2022/01/17 06:39:57;;;;;;;;;;;5.10;99.90;;;;;;5035862;28;19968;-74
2022/01/17 06:42:23;;;;;;;;;;;5.10;99.90;;;;;;5035034;28;20575;-75
2022/01/17 06:44:51;;;;;;;;;;;5.10;99.90;;;;;;5042769;28;19921;-75
2022/01/17 06:47:17;;;;;;;;;;;5.40;99.90;;;;;;5035632;28;19921;-74
2022/01/17 06:49:42;;;;;;;;;;;5.20;99.90;;;;;;5035369;28;20015;-74
2022/01/17 06:52:08;;;;;;;;;;;5.20;99.90;;;;;;5035633;28;19921;-74
2022/01/17 06:54:33;;;;;;;;;;;5.20;99.90;;;;;;5035226;28;20455;-75
2022/01/17 06:56:59;;;;;;;;;;;5.30;99.90;;;;;;5035522;28;19920;-75
2022/01/17 06:59:25;;;;;;;;;;;5.30;99.90;;;;;;5035480;28;19994;-74
2022/01/17 07:01:50;;;;;;;;;;;5.30;99.90;;;;;;5034262;28;20000;-74
2022/01/17 07:04:16;;;;;;;;;;;5.30;99.90;;;;;;5032626;28;19921;-75
2022/01/17 07:06:41;;;;;;;;;;;5.20;99.90;;;;;;5034807;28;20287;-75
2022/01/17 07:09:11;;;;;;;;;;;5.30;99.90;;;;;;5051481;28;20299;-74
2022/01/17 07:11:39;;;;;;;;;;;5.30;99.90;;;;;;5035470;28;19920;-75
2022/01/17 07:14:06;;;;;;;;;;;5.40;99.90;;;;;;5035052;28;19920;-75
2022/01/17 07:16:31;;;;;;;;;;;5.40;99.90;;;;;;5034615;28;19943;-75
2022/01/17 07:18:57;;;;;;;;;;;5.50;99.90;;;;;;5032688;28;20395;-75
2022/01/17 07:21:22;;;;;;;;;;;5.50;99.90;;;;;;5047426;28;19921;-75
2022/01/17 07:23:48;;;;;;;;;;;5.50;99.90;;;;;;5034939;28;20287;-75
2022/01/17 07:26:14;;;;;;;;;;;5.60;99.90;;;;;;5029905;28;19964;-75
2022/01/17 07:28:39;;;;;;;;;;;5.60;99.90;;;;;;5027407;28;19925;-75
2022/01/17 07:31:05;;;;;;;;;;;5.60;99.90;;;;;;5031296;28;20411;-75
2022/01/17 07:33:37;;;;;;;;;;;5.70;99.90;;;;;;5034568;28;19966;-75
2022/01/17 07:36:03;;;;;;;;;;;5.60;99.90;;;;;;5051388;28;19976;-75
2022/01/17 07:38:29;;;;;;;;;;;5.60;99.90;;;;;;5034228;28;20426;-75
2022/01/17 07:40:54;;;;;;;;;;;5.60;99.90;;;;;;5052566;28;20175;-75
2022/01/17 07:43:20;;;;;;;;;;;5.60;99.90;;;;;;5051101;28;19928;-75
2022/01/17 07:46:01;;;;;;;;;;;5.60;99.90;;;;;;5051037;28;20293;-75
2022/01/17 07:51:31;;;;;;;;;;;5.60;99.90;;;;;;4994150;28;19922;-75
2022/01/17 07:53:57;;;;;;;;;;;5.60;99.90;;;;;;4978190;28;19921;-76
2022/01/17 07:56:23;;;;;;;;;;;5.60;99.90;;;;;;5002365;28;19928;-75
2022/01/17 07:58:51;;;;;;;;;;;5.60;99.90;;;;;;5034901;28;19925;-76
2022/01/17 08:01:17;;;;;;;;;;;5.60;99.90;;;;;;5052740;28;19978;-76
2022/01/17 08:03:42;;;;;;;;;;;5.60;99.90;;;;;;5050565;28;20396;-76
2022/01/17 08:06:08;;;;;;;;;;;5.60;99.90;;;;;;5050648;28;19921;-76
2022/01/17 08:08:34;;;;;;;;;;;5.60;99.90;;;;;;5051206;28;19927;-76
2022/01/17 08:10:59;;;;;;;;;;;5.60;99.90;;;;;;5051104;28;19920;-76
2022/01/17 08:13:25;;;;;;;;;;;5.70;99.90;;;;;;5034321;28;19921;-76
2022/01/17 08:15:51;;;;;;;;;;;5.70;99.90;;;;;;5050860;28;19935;-76
2022/01/17 08:18:17;;;;;;;;;;;5.70;99.90;;;;;;5050573;28;19921;-76
2022/01/17 08:20:42;;;;;;;;;;;5.70;99.90;;;;;;5051122;28;20402;-76
2022/01/17 08:23:09;;;;;;;;;;;5.70;99.90;;;;;;5050513;28;20367;-76
2022/01/17 08:25:35;;;;;;;;;;;5.80;99.90;;;;;;5050430;28;19921;-76
2022/01/17 08:28:00;;;;;;;;;;;5.80;99.90;;;;;;5034306;28;20027;-76
2022/01/17 08:30:26;;;;;;;;;;;5.80;99.90;;;;;;5050619;28;20334;-76
2022/01/17 08:32:51;;;;;;;;;;;5.80;99.90;;;;;;5050238;28;20358;-76
2022/01/17 08:35:19;;;;;;;;;;;5.90;99.90;;;;;;5050634;28;19947;-77
2022/01/17 08:37:44;;;;;;;;;;;5.80;99.90;;;;;;5034175;28;20012;-76
2022/01/17 08:40:10;;;;;;;;;;;5.90;99.90;;;;;;5050514;28;19999;-76
2022/01/17 08:42:38;;;;;;;;;;;5.90;99.90;;;;;;5050457;28;19971;-76
2022/01/17 08:45:06;;;;;;;;;;;5.90;99.90;;;;;;5050296;28;19956;-76
2022/01/17 08:47:32;;;;;;;;;;;6.00;99.90;;;;;;5050682;28;19928;-76
2022/01/17 08:49:58;;;;;;;;;;;6.00;99.90;;;;;;5050677;28;19924;-76
2022/01/17 08:52:24;;;;;;;;;;;6.10;99.90;;;;;;5050636;28;19928;-76
2022/01/17 08:54:50;;;;;;;;;;;6.10;99.90;;;;;;5050306;28;19967;-76
2022/01/17 08:57:17;;;;;;;;;;;6.20;99.90;;;;;;5066964;28;19920;-76
2022/01/17 08:59:44;;;;;;;;;;;6.20;99.90;;;;;;5051252;28;19973;-76
2022/01/17 09:02:10;;;;;;;;;;;6.30;99.90;;;;;;5054137;28;19921;-76
2022/01/17 09:04:40;;;;;;;;;;;6.20;99.90;;;;;;5053978;28;20401;-76
2022/01/17 09:07:10;;;;;;;;;;;6.30;99.90;;;;;;5054273;28;19921;-76
2022/01/17 09:09:38;;;;;;;;;;;6.40;99.90;;;;;;5054107;28;19921;-76
2022/01/17 09:12:05;;;;;;;;;;;6.50;99.90;;;;;;5037225;28;19921;-76
2022/01/17 09:14:31;;;;;;;;;;;6.50;99.90;;;;;;5054003;28;20324;-76
2022/01/17 09:16:56;;;;;;;;;;;6.50;99.90;;;;;;5053961;28;19921;-76
2022/01/17 09:19:22;;;;;;;;;;;6.60;99.90;;;;;;5053685;28;19925;-76
2022/01/17 09:21:47;;;;;;;;;;;6.60;99.90;;;;;;5053832;28;20276;-76
2022/01/17 09:24:13;;;;;;;;;;;6.60;99.90;;;;;;5053601;28;19925;-76
2022/01/17 09:26:38;;;;;;;;;;;6.70;99.90;;;;;;5053810;28;20287;-76
2022/01/17 09:29:04;;;;;;;;;;;6.80;99.90;;;;;;5070298;28;19932;-76
2022/01/17 09:31:32;;;;;;;;;;;6.90;99.90;;;;;;5053780;28;19943;-76
2022/01/17 09:33:57;;;;;;;;;;;6.90;99.90;;;;;;5053532;28;19944;-76
2022/01/17 09:36:25;;;;;;;;;;;7.10;99.90;;;;;;5037101;28;19921;-76
2022/01/17 09:38:51;;;;;;;;;;;7.00;99.90;;;;;;5053643;28;19929;-76
2022/01/17 09:41:17;;;;;;;;;;;7.10;99.90;;;;;;5037300;28;19920;-77
2022/01/17 09:43:42;;;;;;;;;;;7.10;99.90;;;;;;5053227;28;19928;-77
2022/01/17 09:46:09;;;;;;;;;;;7.20;99.90;;;;;;5053722;28;19921;-76
2022/01/17 09:48:37;;;;;;;;;;;7.30;99.90;;;;;;5053392;28;19924;-76
2022/01/17 09:51:15;;;;;;;;;;;7.40;99.90;;;;;;5036690;28;20065;-76
2022/01/17 09:53:42;;;;;;;;;;;7.50;99.90;;;;;;5036791;28;19969;-76
2022/01/17 09:56:08;;;;;;;;;;;7.60;99.90;;;;;;5036293;28;20508;-76
2022/01/17 09:58:37;;;;;;;;;;;7.60;99.90;;;;;;5036603;28;19924;-76
2022/01/17 10:01:04;;;;;;;;;;;7.60;99.90;;;;;;5036593;28;19967;-76
2022/01/17 10:03:30;;;;;;;;;;;7.70;99.90;;;;;;5052789;28;20375;-76
2022/01/17 10:05:56;;;;;;;;;;;7.70;99.90;;;;;;5036264;28;19927;-76
2022/01/17 10:08:22;;;;;;;;;;;7.80;99.90;;;;;;5052835;28;20294;-76
2022/01/17 10:10:52;;;;;;;;;;;7.80;99.90;;;;;;5035798;28;19975;-76
2022/01/17 10:13:20;;;;;;;;;;;7.70;99.90;;;;;;5053765;28;19921;-76
2022/01/17 10:16:06;;;;;;;;;;;7.90;99.90;;;;;;5036257;28;19921;-76
2022/01/17 10:18:33;;;;;;;;;;;7.80;99.90;;;;;;5036336;28;19929;-76
2022/01/17 10:21:07;;;;;;;;;;;7.90;99.90;;;;;;5036193;28;19960;-76
2022/01/17 10:24:06;;;;;;;;;;;7.90;99.90;;;;;;5052757;28;19936;-76
2022/01/17 10:29:30;;;;;;;;;;;8.20;99.90;;;;;;5052631;28;19920;-76
2022/01/17 10:34:56;;;;;;;;;;;8.40;99.90;;;;;;5052545;28;19925;-76
2022/01/17 10:37:26;;;;;;;;;;;8.40;99.90;;;;;;5035704;28;19928;-76
2022/01/17 10:39:55;;;;;;;;;;;8.40;99.90;;;;;;5035746;28;20326;-76
2022/01/17 10:42:27;;;;;;;;;;;8.40;99.90;;;;;;5052541;28;20003;-76
2022/01/17 10:44:53;;;;;;;;;;;8.40;99.90;;;;;;5035884;28;19925;-76
2022/01/17 10:47:20;;;;;;;;;;;8.40;99.90;;;;;;5035718;28;20414;-76
2022/01/17 10:49:56;;;;;;;;;;;8.50;99.90;;;;;;5052073;28;20351;-76
2022/01/17 10:52:29;;;;;;;;;;;8.60;99.90;;;;;;5035471;28;20047;-76
2022/01/17 10:54:56;;;;;;;;;;;8.80;99.90;;;;;;5052081;28;20284;-76
2022/01/17 10:57:22;;;;;;;;;;;8.90;99.90;;;;;;5035244;28;19920;-76
2022/01/17 10:59:51;;;;;;;;;;;8.90;99.90;;;;;;5051943;28;20343;-76
2022/01/17 11:02:17;;;;;;;;;;;8.90;99.90;;;;;;5051774;28;19966;-76
2022/01/17 11:04:42;;;;;;;;;;;8.80;99.90;;;;;;5051875;28;19972;-76
2022/01/17 11:07:08;;;;;;;;;;;8.90;99.90;;;;;;5068839;28;20367;-76
2022/01/17 11:09:41;;;;;;;;;;;9.10;99.90;;;;;;5035353;28;19927;-76
2022/01/17 11:12:13;;;;;;;;;;;9.40;99.90;;;;;;5035911;28;19921;-77
2022/01/17 11:14:43;;;;;;;;;;;9.60;99.90;;;;;;5052790;28;19921;-76
2022/01/17 11:17:15;;;;;;;;;;;9.80;99.90;;;;;;5034838;28;19920;-76
2022/01/17 11:22:25;;;;;;;;;;;9.90;99.90;;;;;;5051239;28;20477;-76
2022/01/17 11:24:51;;;;;;;;;;;9.90;99.90;;;;;;5051396;28;20007;-76
2022/01/17 11:27:17;;;;;;;;;;;9.90;99.90;;;;;;5034659;28;19921;-76
2022/01/17 11:29:42;;;;;;;;;;;9.80;99.90;;;;;;5051381;28;19920;-76
2022/01/17 11:32:11;;;;;;;;;;;9.60;99.90;;;;;;5035233;28;19922;-76
2022/01/17 11:34:36;;;;;;;;;;;9.60;99.90;;;;;;5034623;28;20398;-76
2022/01/17 11:37:02;;;;;;;;;;;9.50;99.90;;;;;;5051432;28;19975;-76
2022/01/17 11:39:28;;;;;;;;;;;9.50;99.90;;;;;;5051387;28;20039;-76
2022/01/17 11:41:56;;;;;;;;;;;9.60;99.90;;;;;;5051200;28;19944;-76
2022/01/17 11:44:32;;;;;;;;;;;9.60;99.90;;;;;;5050856;28;20011;-76
2022/01/17 11:46:59;;;;;;;;;;;9.60;99.90;;;;;;5052331;28;20345;-76
2022/01/17 11:49:26;;;;;;;;;;;9.60;99.90;;;;;;5051263;28;19975;-76
2022/01/17 11:51:51;;;;;;;;;;;9.90;99.90;;;;;;5034697;28;19975;-75
2022/01/17 11:54:17;;;;;;;;;;;10.70;99.90;;;;;;5051113;28;19967;-75
2022/01/17 11:56:47;;;;;;;;;;;11.30;99.90;;;;;;5050901;28;20417;-75
2022/01/17 11:59:26;;;;;;;;;;;11.80;99.90;;;;;;5034431;28;20383;-75
2022/01/17 12:02:11;;;;;;;;;;;12.40;99.90;;;;;;5034262;28;19921;-75
2022/01/17 12:04:36;;;;;;;;;;;12.90;99.90;;;;;;5034048;28;19928;-75
2022/01/17 12:07:02;;;;;;;;;;;13.20;99.90;;;;;;5050261;28;19921;-75
2022/01/17 12:09:29;;;;;;;;;;;13.60;99.90;;;;;;5051013;28;19931;-75
2022/01/17 12:12:11;;;;;;;;;;;13.20;99.90;;;;;;5034379;28;20019;-75
2022/01/17 12:14:42;;;;;;;;;;;12.70;99.90;;;;;;5034258;28;19936;-75
2022/01/17 12:17:20;;;;;;;;;;;12.20;99.90;;;;;;5052032;28;19921;-76
2022/01/17 12:20:09;;;;;;;;;;;12.10;99.90;;;;;;5033930;28;19924;-75
2022/01/17 12:22:52;;;;;;;;;;;12.50;99.90;;;;;;5067462;28;19924;-76
2022/01/17 12:25:29;;;;;;;;;;;12.30;99.90;;;;;;5034246;28;19921;-76
2022/01/17 12:28:16;;;;;;;;;;;12.10;99.90;;;;;;5034078;28;20345;-76
2022/01/17 12:30:45;;;;;;;;;;;11.70;99.90;;;;;;5050993;28;20283;-76
2022/01/17 12:33:11;;;;;;;;;;;11.50;99.90;;;;;;5050522;28;20038;-76
2022/01/17 12:35:45;;;;;;;;;;;11.10;99.90;;;;;;5036530;28;19921;-76
2022/01/17 12:38:14;;;;;;;;;;;10.80;99.90;;;;;;5038183;28;19925;-76
2022/01/17 12:40:42;;;;;;;;;;;10.50;99.90;;;;;;5037659;28;19924;-75
2022/01/17 12:43:12;;;;;;;;;;;10.30;99.90;;;;;;5054285;28;20452;-76
2022/01/17 12:45:38;;;;;;;;;;;10.30;99.90;;;;;;5037947;28;19920;-76
2022/01/17 12:48:09;;;;;;;;;;;10.10;99.90;;;;;;5054858;28;20002;-76
2022/01/17 12:50:36;;;;;;;;;;;10.00;99.90;;;;;;5038062;28;19969;-76
2022/01/17 12:53:03;;;;;;;;;;;9.90;99.90;;;;;;5037402;28;19972;-76
2022/01/17 12:55:34;;;;;;;;;;;9.80;99.90;;;;;;5037503;28;19928;-76
2022/01/17 12:58:08;;;;;;;;;;;9.70;99.90;;;;;;5054485;28;19971;-76
2022/01/17 13:00:33;;;;;;;;;;;9.70;99.90;;;;;;5037598;28;19925;-75
2022/01/17 13:02:59;;;;;;;;;;;9.60;99.90;;;;;;5054278;28;19970;-75
2022/01/17 13:05:27;;;;;;;;;;;9.60;99.90;;;;;;5054255;28;19920;-76
2022/01/17 13:07:55;;;;;;;;;;;9.60;99.90;;;;;;5037764;28;19921;-76
2022/01/17 13:10:21;;;;;;;;;;;9.50;99.90;;;;;;5053955;28;19921;-76
2022/01/17 13:12:51;;;;;;;;;;;9.50;99.90;;;;;;5053823;28;20106;-76
2022/01/17 13:15:17;;;;;;;;;;;9.40;99.90;;;;;;5053744;28;20389;-76
2022/01/17 13:17:42;;;;;;;;;;;9.30;99.90;;;;;;5053977;28;19921;-76
2022/01/17 13:20:08;;;;;;;;;;;9.40;99.90;;;;;;5053735;28;20379;-76
2022/01/17 13:22:39;;;;;;;;;;;9.30;99.90;;;;;;5053980;28;19920;-76
2022/01/17 13:25:08;;;;;;;;;;;9.30;99.90;;;;;;5037013;28;20443;-76
2022/01/17 13:27:37;;;;;;;;;;;9.30;99.90;;;;;;5053832;28;19924;-76
2022/01/17 13:30:08;;;;;;;;;;;9.30;99.90;;;;;;5037086;28;20399;-76
2022/01/17 13:32:34;;;;;;;;;;;9.40;99.90;;;;;;5037101;28;20010;-76
2022/01/17 13:35:10;;;;;;;;;;;9.40;99.90;;;;;;5053725;28;19921;-76
2022/01/17 13:37:37;;;;;;;;;;;9.40;99.90;;;;;;5036823;28;20050;-76
2022/01/17 13:40:23;;;;;;;;;;;9.50;99.90;;;;;;5038715;28;19932;-77
2022/01/17 13:42:51;;;;;;;;;;;9.50;99.90;;;;;;5070238;28;20330;-75
2022/01/17 13:45:29;;;;;;;;;;;9.40;99.90;;;;;;5052996;28;19921;-75
2022/01/17 13:47:55;;;;;;;;;;;9.40;99.90;;;;;;5053173;28;19925;-74
2022/01/17 13:50:21;;;;;;;;;;;9.40;99.90;;;;;;5053146;28;19928;-75
2022/01/17 13:52:46;;;;;;;;;;;9.40;99.90;;;;;;5053387;28;20442;-75
2022/01/17 13:55:27;;;;;;;;;;;9.30;99.90;;;;;;5053087;28;19972;-75
2022/01/17 13:57:57;;;;;;;;;;;9.30;99.90;;;;;;5053322;28;20007;-74
2022/01/17 14:00:23;;;;;;;;;;;9.30;99.90;;;;;;5053332;28;19960;-76
2022/01/17 14:02:50;;;;;;;;;;;9.20;99.90;;;;;;5053000;28;19927;-76
2022/01/17 14:05:28;;;;;;;;;;;9.20;99.90;;;;;;5052932;28;19921;-76
2022/01/17 14:08:08;;;;;;;;;;;9.20;99.90;;;;;;5036297;28;20358;-76
2022/01/17 14:10:34;;;;;;;;;;;9.20;99.90;;;;;;5053169;28;19921;-76
2022/01/17 14:12:59;;;;;;;;;;;9.20;99.90;;;;;;5052779;28;19927;-76
2022/01/17 14:15:26;;;;;;;;;;;9.10;99.90;;;;;;5054145;28;19942;-76
2022/01/17 14:17:51;;;;;;;;;;;9.10;99.90;;;;;;5036551;28;20283;-76
2022/01/17 14:20:18;;;;;;;;;;;9.10;99.90;;;;;;5052732;28;19924;-76
2022/01/17 14:22:51;;;;;;;;;;;9.10;99.90;;;;;;5052445;28;19925;-76
2022/01/17 14:25:23;;;;;;;;;;;9.10;99.90;;;;;;5035979;28;19960;-77
2022/01/17 14:27:56;;;;;;;;;;;9.10;99.90;;;;;;5036101;28;19928;-76
2022/01/17 14:30:26;;;;;;;;;;;9.00;99.90;;;;;;5036051;28;19920;-76
2022/01/17 14:33:16;;;;;;;;;;;9.00;99.90;;;;;;5052558;28;20015;-77
2022/01/17 14:36:01;;;;;;;;;;;9.00;99.90;;;;;;5069779;28;19920;-76
2022/01/17 14:38:26;;;;;;;;;;;9.00;99.90;;;;;;5036203;28;19921;-76
2022/01/17 14:40:52;;;;;;;;;;;8.90;99.90;;;;;;5069486;28;19920;-76
2022/01/17 14:43:17;;;;;;;;;;;8.90;99.90;;;;;;5052276;28;19925;-76
2022/01/17 14:45:49;;;;;;;;;;;8.90;99.90;;;;;;5052120;28;19921;-76
2022/01/17 14:48:15;;;;;;;;;;;8.90;99.90;;;;;;5035578;28;19932;-76
2022/01/17 14:50:41;;;;;;;;;;;8.90;99.90;;;;;;5052369;28;19920;-76
2022/01/17 14:53:14;;;;;;;;;;;8.90;99.90;;;;;;5035771;28;19943;-76
2022/01/17 15:01:17;;;;;;;;;;;8.80;99.90;;;;;;5052090;28;19971;-76